Time;durP1;ratioP1;P1;durP2;ratioP2;P2;SDS_P1;SDS_P2;PMS_P1;PMS_P2;Temp;Humidity;BMP_temperature;BMP_pressure;BME280_temperature;BME280_humidity;BME280_pressure;Samples;Min_cycle;Max_cycle;Signal;HPM_P1;HPM_P2
2022/12/16 00:05:10;;;;;;;;;;;12.90;99.90;;;;;;5068672;28;20386;-73
2022/12/16 00:07:56;;;;;;;;;;;12.80;99.90;;;;;;5070531;28;20368;-73
2022/12/16 00:10:24;;;;;;;;;;;12.80;99.90;;;;;;5069814;28;19974;-75
2022/12/16 00:12:50;;;;;;;;;;;12.80;99.90;;;;;;5065582;28;20312;-73
2022/12/16 00:24:19;;;;;;;;;;;13.00;99.90;;;;;;4951837;29;20354;-74
2022/12/16 00:26:44;;;;;;;;;;;13.20;99.90;;;;;;4948099;28;19914;-74
2022/12/16 00:29:11;;;;;;;;;;;13.20;99.90;;;;;;4947753;28;20347;-74
2022/12/16 00:34:39;;;;;;;;;;;13.40;99.90;;;;;;4935627;29;19915;-75
2022/12/16 00:37:05;;;;;;;;;;;13.40;99.90;;;;;;4941900;28;20039;-75
2022/12/16 00:39:50;;;;;;;;;;;;;;;;;;;;;
2022/12/16 00:42:16;;;;;;;;;;;13.40;99.90;;;;;;4992242;28;19913;-74
2022/12/16 00:44:41;;;;;;;;;;;13.50;99.90;;;;;;4999962;28;19952;-74
2022/12/16 00:47:17;;;;;;;;;;;13.50;99.90;;;;;;5009401;28;19916;-74
2022/12/16 00:49:43;;;;;;;;;;;13.50;99.90;;;;;;5065178;28;19913;-74
2022/12/16 00:52:52;;;;;;;;;;;;;;;;;;;;;
2022/12/16 00:55:19;;;;;;;;;;;13.50;99.90;;;;;;4993368;28;20381;-74
2022/12/16 00:57:48;;;;;;;;;;;13.50;99.90;;;;;;4995367;28;19910;-74
2022/12/16 01:03:40;;;;;;;;;;;13.50;99.90;;;;;;4983047;28;19914;-74
2022/12/16 01:09:17;;;;;;;;;;;13.60;99.90;;;;;;4982666;28;19984;-73
2022/12/16 01:11:46;;;;;;;;;;;13.60;99.90;;;;;;4986963;28;19914;-74
2022/12/16 01:14:12;;;;;;;;;;;13.50;99.90;;;;;;4984592;28;19945;-73
2022/12/16 01:16:38;;;;;;;;;;;13.50;99.90;;;;;;5060402;28;19916;-74
2022/12/16 01:19:12;;;;;;;;;;;13.50;99.90;;;;;;5058928;28;20001;-74
2022/12/16 01:21:41;;;;;;;;;;;13.60;99.90;;;;;;5070943;28;19925;-74
2022/12/16 01:24:10;;;;;;;;;;;13.60;99.90;;;;;;5062227;28;19967;-73
2022/12/16 01:26:38;;;;;;;;;;;13.50;99.90;;;;;;5062940;28;19916;-75
2022/12/16 01:29:04;;;;;;;;;;;13.50;99.90;;;;;;5059866;28;19923;-74
2022/12/16 01:31:38;;;;;;;;;;;13.50;99.90;;;;;;5056796;28;19912;-73
2022/12/16 01:34:04;;;;;;;;;;;13.50;99.90;;;;;;5056496;28;19916;-73
2022/12/16 01:36:30;;;;;;;;;;;13.40;99.90;;;;;;5057431;28;19920;-73
2022/12/16 01:38:58;;;;;;;;;;;13.40;99.90;;;;;;5065631;28;19908;-74
2022/12/16 01:41:24;;;;;;;;;;;13.30;99.90;;;;;;5071266;28;19967;-75
2022/12/16 01:43:50;;;;;;;;;;;13.30;99.90;;;;;;5075353;28;20326;-75
2022/12/16 01:46:19;;;;;;;;;;;13.30;99.90;;;;;;5059877;28;19983;-76
2022/12/16 01:49:13;;;;;;;;;;;13.30;99.90;;;;;;5058377;28;20040;-76
2022/12/16 01:51:41;;;;;;;;;;;13.30;99.90;;;;;;5059988;28;19967;-75
2022/12/16 01:54:10;;;;;;;;;;;13.30;99.90;;;;;;5071228;28;19920;-74
2022/12/16 02:02:55;;;;;;;;;;;13.10;99.90;;;;;;5058529;28;19928;-74
2022/12/16 02:08:28;;;;;;;;;;;13.00;99.90;;;;;;4980455;28;20002;-74
2022/12/16 02:14:35;;;;;;;;;;;;;;;;;;;;;
2022/12/16 02:17:26;;;;;;;;;;;13.00;99.90;;;;;;5051042;28;19918;-75
2022/12/16 02:20:13;;;;;;;;;;;13.00;99.90;;;;;;5069795;28;19912;-78
2022/12/16 02:29:09;;;;;;;;;;;12.90;99.90;;;;;;4979528;28;19925;-75
2022/12/16 02:35:05;;;;;;;;;;;12.80;99.90;;;;;;4967682;28;20032;-75
2022/12/16 02:37:46;;;;;;;;;;;12.80;99.90;;;;;;5040090;28;20395;-75
2022/12/16 02:40:15;;;;;;;;;;;12.70;99.90;;;;;;5068891;28;19924;-75
2022/12/16 02:42:45;;;;;;;;;;;12.80;99.90;;;;;;5074127;28;19916;-74
2022/12/16 02:45:18;;;;;;;;;;;12.80;99.90;;;;;;5069291;28;19919;-76
2022/12/16 02:54:02;;;;;;;;;;;12.80;99.90;;;;;;5020721;28;19959;-74
2022/12/16 02:56:41;;;;;;;;;;;12.70;99.90;;;;;;5072518;28;19924;-74
2022/12/16 02:59:45;;;;;;;;;;;12.80;99.90;;;;;;5073353;28;20322;-74
2022/12/16 03:02:41;;;;;;;;;;;12.70;99.90;;;;;;5057610;28;19926;-75
2022/12/16 03:11:47;;;;;;;;;;;12.70;99.90;;;;;;5065046;28;19918;-75
2022/12/16 03:14:24;;;;;;;;;;;12.70;99.90;;;;;;5072029;28;19984;-75
2022/12/16 03:29:05;;;;;;;;;;;12.80;99.90;;;;;;4945774;28;19926;-74
2022/12/16 03:35:31;;;;;;;;;;;;;;;;;;;;;
2022/12/16 03:47:35;;;;;;;;;;;12.70;99.90;;;;;;4960533;28;19922;-75
2022/12/16 03:50:05;;;;;;;;;;;12.70;99.90;;;;;;5012367;28;20405;-76
2022/12/16 03:52:38;;;;;;;;;;;12.70;99.90;;;;;;5015954;28;19948;-74
2022/12/16 03:55:06;;;;;;;;;;;12.70;99.90;;;;;;5038789;28;20384;-75
2022/12/16 03:57:35;;;;;;;;;;;12.70;99.90;;;;;;5056062;28;19917;-77
2022/12/16 04:03:21;;;;;;;;;;;12.70;99.90;;;;;;4986205;28;19922;-75
2022/12/16 04:25:34;;;;;;;;;;;12.60;99.90;;;;;;5047949;28;19925;-75
2022/12/16 04:28:00;;;;;;;;;;;12.50;99.90;;;;;;5041380;28;19920;-74
2022/12/16 04:30:54;;;;;;;;;;;;;;;;;;;;;
